createdAt,value
2023-04-12T00:01:06.471Z,10.13
2023-04-12T00:03:35.363Z,10.12
2023-04-12T00:06:03.936Z,10.10
2023-04-12T00:08:38.845Z,10.07
2023-04-12T00:11:07.490Z,10.05
2023-04-12T00:13:35.709Z,10.02
2023-04-12T00:16:09.267Z,9.99
2023-04-12T00:18:37.295Z,9.97
2023-04-12T00:21:05.634Z,9.96
2023-04-12T00:23:38.209Z,9.97
2023-04-12T00:26:06.650Z,9.97
2023-04-12T00:28:34.520Z,9.96
2023-04-12T00:31:02.661Z,9.92
2023-04-12T00:33:30.694Z,9.90
2023-04-12T00:36:02.631Z,9.87
2023-04-12T00:38:31.106Z,9.81
2023-04-12T00:41:00.827Z,9.72
2023-04-12T00:43:30.020Z,9.67
2023-04-12T00:45:57.996Z,9.65
2023-04-12T00:48:31.496Z,9.61
2023-04-12T00:51:01.121Z,9.56
2023-04-12T00:53:29.384Z,9.50
2023-04-12T00:55:58.438Z,9.46
2023-04-12T00:58:26.801Z,9.42
2023-04-12T01:01:00.433Z,9.36
2023-04-12T01:03:30.859Z,9.29
2023-04-12T01:06:21.203Z,9.25
2023-04-12T01:09:23.931Z,9.19
2023-04-12T01:12:23.992Z,9.19
2023-04-12T01:15:09.133Z,9.20
2023-04-12T01:17:40.214Z,9.20
2023-04-12T01:20:16.777Z,9.18
2023-04-12T01:23:17.279Z,9.11
2023-04-12T01:25:48.051Z,9.08
2023-04-12T01:28:17.945Z,9.04
2023-04-12T01:30:49.200Z,9.01
2023-04-12T01:33:17.389Z,8.96
2023-04-12T01:35:45.786Z,8.92
2023-04-12T01:38:14.012Z,8.91
2023-04-12T01:40:43.418Z,8.90
2023-04-12T01:43:13.340Z,8.87
2023-04-12T01:45:41.221Z,8.82
2023-04-12T01:48:11.105Z,8.77
2023-04-12T01:50:55.844Z,8.70
2023-04-12T01:53:36.363Z,8.66
2023-04-12T01:56:09.712Z,8.69
2023-04-12T01:58:38.438Z,8.71
2023-04-12T02:01:06.712Z,8.72
2023-04-12T02:03:35.498Z,8.71
2023-04-12T02:06:04.059Z,8.71
2023-04-12T02:08:33.367Z,8.70
2023-04-12T02:11:01.321Z,8.69
2023-04-12T02:13:29.499Z,8.68
2023-04-12T02:15:59.268Z,8.67
2023-04-12T02:18:29.177Z,8.66
2023-04-12T02:20:58.253Z,8.70
2023-04-12T02:23:32.380Z,8.74
2023-04-12T02:26:01.603Z,8.77
2023-04-12T02:28:30.377Z,8.76
2023-04-12T02:31:00.574Z,8.71
2023-04-12T02:33:30.760Z,8.70
2023-04-12T02:36:02.615Z,8.65
2023-04-12T02:38:31.819Z,8.60
2023-04-12T02:41:00.859Z,8.60
2023-04-12T02:43:29.503Z,8.59
2023-04-12T02:46:01.168Z,8.55
2023-04-12T02:48:29.659Z,8.54
2023-04-12T02:50:58.539Z,8.56
2023-04-12T02:53:31.749Z,8.59
2023-04-12T02:56:21.920Z,8.63
2023-04-12T02:58:52.895Z,8.63
2023-04-12T03:01:32.262Z,8.62
2023-04-12T03:04:19.233Z,8.62
2023-04-12T03:06:53.956Z,8.64
2023-04-12T03:09:32.454Z,8.66
2023-04-12T03:12:00.619Z,8.65
2023-04-12T03:14:37.049Z,8.63
2023-04-12T03:17:06.198Z,8.62
2023-04-12T03:19:35.379Z,8.59
2023-04-12T03:22:07.464Z,8.57
2023-04-12T03:24:38.373Z,8.59
2023-04-12T03:27:08.235Z,8.62
2023-04-12T03:29:38.220Z,8.64
2023-04-12T03:32:07.319Z,8.64
2023-04-12T03:34:36.104Z,8.62
2023-04-12T03:37:11.168Z,8.61
2023-04-12T03:39:43.626Z,8.59
2023-04-12T03:42:18.726Z,8.58
2023-04-12T03:44:54.831Z,8.56
2023-04-12T03:47:27.259Z,8.54
2023-04-12T03:50:11.143Z,8.58
2023-04-12T03:52:40.872Z,8.60
2023-04-12T03:55:09.446Z,8.63
2023-04-12T03:57:37.878Z,8.62
2023-04-12T04:00:08.855Z,8.63
2023-04-12T04:03:09.539Z,8.66
2023-04-12T04:05:56.390Z,8.66
2023-04-12T04:08:25.390Z,8.66
2023-04-12T04:10:54.857Z,8.67
2023-04-12T04:13:34.248Z,8.68
2023-04-12T04:16:07.171Z,8.71
2023-04-12T04:18:36.295Z,8.73
2023-04-12T04:21:09.394Z,8.77
2023-04-12T04:23:45.202Z,8.80
2023-04-12T04:26:20.313Z,8.82
2023-04-12T04:29:01.919Z,8.85
2023-04-12T04:31:37.858Z,8.88
2023-04-12T04:34:06.860Z,8.86
2023-04-12T04:36:38.693Z,8.84
2023-04-12T04:39:15.901Z,8.83
2023-04-12T04:41:46.714Z,8.81
2023-04-12T04:44:21.886Z,8.81
2023-04-12T04:46:54.308Z,8.81
2023-04-12T04:49:22.307Z,8.81
2023-04-12T04:51:50.620Z,8.83
2023-04-12T04:54:19.706Z,8.84
2023-04-12T04:56:47.750Z,8.86
2023-04-12T04:59:18.313Z,8.86
2023-04-12T05:01:46.636Z,8.84
2023-04-12T05:04:20.521Z,8.86
2023-04-12T05:06:48.478Z,8.88
2023-04-12T05:09:17.969Z,8.90
2023-04-12T05:11:51.391Z,8.91
2023-04-12T05:14:20.424Z,8.91
2023-04-12T05:16:48.364Z,8.89
2023-04-12T05:19:20.975Z,8.83
2023-04-12T05:21:49.346Z,8.80
2023-04-12T05:24:17.418Z,8.80
2023-04-12T05:26:45.683Z,8.78
2023-04-12T05:29:14.632Z,8.75
2023-04-12T05:31:42.755Z,8.67
2023-04-12T05:34:16.222Z,8.60
2023-04-12T05:36:51.940Z,8.60
2023-04-12T05:39:20.864Z,8.62
2023-04-12T05:41:50.056Z,8.65
2023-04-12T05:44:18.829Z,8.69
2023-04-12T05:46:48.755Z,8.73
2023-04-12T05:49:17.253Z,8.73
2023-04-12T05:51:45.403Z,8.72
2023-04-12T05:54:21.265Z,8.70
2023-04-12T05:56:50.581Z,8.66
2023-04-12T05:59:20.026Z,8.67
2023-04-12T06:01:48.578Z,8.69
2023-04-12T06:04:19.086Z,8.71
2023-04-12T06:06:48.634Z,8.69
2023-04-12T06:09:17.380Z,8.66
2023-04-12T06:11:46.053Z,8.64
2023-04-12T06:14:18.182Z,8.67
2023-04-12T06:16:47.386Z,8.70
2023-04-12T06:19:15.307Z,8.70
2023-04-12T06:21:43.238Z,8.73
2023-04-12T06:24:11.168Z,8.74
2023-04-12T06:26:40.356Z,8.75
2023-04-12T06:29:13.032Z,8.77
2023-04-12T06:31:41.553Z,8.77
2023-04-12T06:34:10.167Z,8.76
2023-04-12T06:36:41.668Z,8.77
2023-04-12T06:39:09.740Z,8.79
2023-04-12T06:41:38.975Z,8.79
2023-04-12T06:44:07.226Z,8.79
2023-04-12T06:46:40.144Z,8.78
2023-04-12T06:49:08.583Z,8.80
2023-04-12T06:51:36.862Z,8.82
2023-04-12T06:54:05.305Z,8.85
2023-04-12T06:56:34.785Z,8.88
2023-04-12T06:59:02.834Z,8.91
2023-04-12T07:01:31.774Z,8.94
2023-04-12T07:03:59.900Z,8.94
2023-04-12T07:06:29.081Z,8.96
2023-04-12T07:08:59.345Z,8.99
2023-04-12T07:11:28.310Z,8.97
2023-04-12T07:14:01.406Z,8.97
2023-04-12T07:16:31.336Z,9.00
2023-04-12T07:19:00.659Z,9.04
2023-04-12T07:21:32.948Z,9.07
2023-04-12T07:24:01.726Z,9.09
2023-04-12T07:26:31.247Z,9.11
2023-04-12T07:29:02.766Z,9.13
2023-04-12T07:31:31.120Z,9.15
2023-04-12T07:33:59.089Z,9.16
2023-04-12T07:36:27.777Z,9.19
2023-04-12T07:38:56.210Z,9.22
2023-04-12T07:41:29.254Z,9.26
2023-04-12T07:43:59.561Z,9.27
2023-04-12T07:46:27.707Z,9.28
2023-04-12T07:48:57.133Z,9.26
2023-04-12T07:51:26.821Z,9.24
2023-04-12T07:53:58.341Z,9.25
2023-04-12T07:56:27.095Z,9.26
2023-04-12T07:58:55.052Z,9.27
2023-04-12T08:01:23.150Z,9.29
2023-04-12T08:03:51.886Z,9.31
2023-04-12T08:06:19.763Z,9.25
2023-04-12T08:08:47.625Z,9.24
2023-04-12T08:11:16.156Z,9.26
2023-04-12T08:13:44.268Z,9.29
2023-04-12T08:16:14.400Z,9.33
2023-04-12T08:18:43.342Z,9.36
2023-04-12T08:21:11.707Z,9.40
2023-04-12T08:23:39.669Z,9.42
2023-04-12T08:26:08.022Z,9.43
2023-04-12T08:28:36.866Z,9.43
2023-04-12T08:31:08.280Z,9.45
2023-04-12T08:33:36.588Z,9.47
2023-04-12T08:36:04.790Z,9.49
2023-04-12T08:41:06.030Z,9.57
2023-04-12T08:43:39.935Z,9.64
2023-04-12T08:46:07.889Z,9.69
2023-04-12T08:48:36.254Z,9.73
2023-04-12T08:51:05.088Z,9.75
2023-04-12T08:53:33.587Z,9.74
2023-04-12T08:56:10.847Z,9.77
2023-04-12T08:58:40.902Z,9.82
2023-04-12T09:01:14.924Z,9.85
2023-04-12T09:03:43.639Z,9.82
2023-04-12T09:06:12.603Z,9.79
2023-04-12T09:08:54.029Z,9.81
2023-04-12T09:11:30.938Z,9.86
2023-04-12T09:13:59.381Z,9.89
2023-04-12T09:16:54.354Z,9.89
2023-04-12T09:19:35.896Z,9.86
2023-04-12T09:22:03.867Z,9.83
2023-04-12T09:24:32.179Z,9.81
2023-04-12T09:27:04.916Z,9.78
2023-04-12T09:29:33.439Z,9.75
2023-04-12T09:32:08.347Z,9.76
2023-04-12T09:34:37.071Z,9.71
2023-04-12T09:37:14.851Z,9.73
2023-04-12T09:39:49.206Z,9.77
2023-04-12T09:42:32.219Z,9.81
2023-04-12T09:45:02.902Z,9.84
2023-04-12T09:47:39.374Z,9.82
2023-04-12T09:50:08.722Z,9.85
2023-04-12T09:52:42.459Z,9.88
2023-04-12T09:55:10.758Z,9.93
2023-04-12T09:57:43.265Z,9.97
2023-04-12T10:00:18.999Z,9.99
2023-04-12T10:02:52.273Z,10.03
2023-04-12T10:05:23.304Z,10.05
2023-04-12T10:07:51.646Z,10.07
2023-04-12T10:10:20.663Z,10.08
2023-04-12T10:12:49.154Z,10.07
2023-04-12T10:15:18.035Z,10.08
2023-04-12T10:17:54.017Z,10.09
2023-04-12T10:20:24.805Z,10.09
2023-04-12T10:22:54.265Z,10.07
2023-04-12T10:25:25.860Z,10.08
2023-04-12T10:27:53.958Z,10.09
2023-04-12T10:30:28.394Z,10.10
2023-04-12T10:33:05.501Z,10.10
2023-04-12T10:35:57.146Z,10.10
2023-04-12T10:38:33.648Z,10.08
2023-04-12T10:41:16.485Z,10.10
2023-04-12T10:43:48.016Z,10.12
2023-04-12T10:46:39.062Z,10.15
2023-04-12T10:49:09.839Z,10.15
2023-04-12T10:52:05.740Z,10.16
2023-04-12T10:54:36.799Z,10.16
2023-04-12T10:57:06.755Z,10.17
2023-04-12T10:59:57.603Z,10.17
2023-04-12T11:02:26.533Z,10.18
2023-04-12T11:05:11.318Z,10.20
2023-04-12T11:07:59.431Z,10.21
2023-04-12T11:10:46.968Z,10.21
2023-04-12T11:13:38.803Z,10.21
2023-04-12T11:16:12.852Z,10.20
2023-04-12T11:18:41.394Z,10.21
2023-04-12T11:21:09.582Z,10.22
2023-04-12T11:23:43.473Z,10.27
2023-04-12T11:26:11.933Z,10.29
2023-04-12T11:28:40.243Z,10.30
2023-04-12T11:31:08.436Z,10.31
2023-04-12T11:33:38.658Z,10.31
2023-04-12T11:36:14.099Z,10.35
2023-04-12T11:38:43.084Z,10.38
2023-04-12T11:41:11.738Z,10.41
2023-04-12T11:43:39.794Z,10.43
2023-04-12T11:46:08.183Z,10.46
2023-04-12T11:48:38.854Z,10.48
2023-04-12T11:51:25.628Z,10.49
2023-04-12T11:53:55.572Z,10.51
2023-04-12T11:56:24.111Z,10.53
2023-04-12T11:58:52.059Z,10.54
2023-04-12T12:01:22.955Z,10.54
2023-04-12T12:05:49.151Z,10.56
2023-04-12T12:08:17.819Z,10.58
2023-04-12T12:11:04.085Z,10.59
2023-04-12T12:13:51.039Z,10.61
2023-04-12T12:16:25.982Z,10.64
2023-04-12T12:18:54.153Z,10.65
2023-04-12T12:21:22.346Z,10.64
2023-04-12T12:23:50.488Z,10.61
2023-04-12T12:26:26.067Z,10.57
2023-04-12T12:28:55.440Z,10.58
2023-04-12T12:31:31.376Z,10.59
2023-04-12T12:34:01.761Z,10.57
2023-04-12T12:36:36.331Z,10.58
2023-04-12T12:39:10.670Z,10.59
2023-04-12T12:41:39.729Z,10.60
2023-04-12T12:44:08.493Z,10.64
2023-04-12T12:49:09.721Z,10.68
2023-04-12T12:51:39.897Z,10.71
2023-04-12T12:54:07.983Z,10.73
2023-04-12T12:56:37.240Z,10.75
2023-04-12T12:59:06.183Z,10.77
2023-04-12T13:01:34.431Z,10.77
2023-04-12T13:04:03.099Z,10.76
2023-04-12T13:06:32.437Z,10.75
2023-04-12T13:09:00.783Z,10.76
2023-04-12T13:11:33.166Z,10.78
2023-04-12T13:14:02.453Z,10.79
2023-04-12T13:16:30.990Z,10.80
2023-04-12T13:18:59.538Z,10.80
2023-04-12T13:21:29.854Z,10.83
2023-04-12T13:23:58.450Z,10.83
2023-04-12T13:26:26.627Z,10.81
2023-04-12T13:28:55.026Z,10.79
2023-04-12T13:31:28.723Z,10.79
2023-04-12T13:33:58.148Z,10.80
2023-04-12T13:36:27.448Z,10.81
2023-04-12T13:38:55.690Z,10.83
2023-04-12T13:41:24.096Z,10.85
2023-04-12T13:43:52.375Z,10.86
2023-04-12T13:46:21.379Z,10.87
2023-04-12T13:48:50.061Z,10.88
2023-04-12T13:51:19.071Z,10.87
2023-04-12T13:53:52.494Z,10.87
2023-04-12T13:56:20.945Z,10.86
2023-04-12T13:58:49.115Z,10.89
2023-04-12T14:01:18.957Z,10.90
2023-04-12T14:03:48.452Z,10.90
2023-04-12T14:06:16.729Z,10.92
2023-04-12T14:08:48.246Z,10.92
2023-04-12T14:11:17.285Z,10.93
2023-04-12T14:13:45.627Z,10.93
2023-04-12T14:16:13.693Z,10.89
2023-04-12T14:18:42.735Z,10.86
2023-04-12T14:21:11.278Z,10.87
2023-04-12T14:23:40.099Z,10.88
2023-04-12T14:26:15.879Z,10.91
2023-04-12T14:28:43.999Z,10.93
2023-04-12T14:31:18.826Z,10.94
2023-04-12T14:33:48.118Z,10.96
2023-04-12T14:36:16.245Z,10.97
2023-04-12T14:38:49.852Z,11.02
2023-04-12T14:41:18.042Z,11.03
2023-04-12T14:43:46.626Z,11.05
2023-04-12T14:46:16.239Z,11.07
2023-04-12T14:48:46.936Z,11.08
2023-04-12T14:51:15.151Z,11.12
2023-04-12T14:53:43.375Z,11.14
2023-04-12T14:56:24.979Z,11.18
2023-04-12T14:58:58.462Z,11.22
2023-04-12T15:01:27.773Z,11.20
2023-04-12T15:03:56.292Z,11.19
2023-04-12T15:06:27.208Z,11.19
2023-04-12T15:08:57.412Z,11.20
2023-04-12T15:11:27.266Z,11.21
2023-04-12T15:13:59.465Z,11.22
2023-04-12T15:16:28.979Z,11.22
2023-04-12T15:18:59.255Z,11.21
2023-04-12T15:21:31.399Z,11.20
2023-04-12T15:24:01.692Z,11.18
2023-04-12T15:26:30.189Z,11.17
2023-04-12T15:28:58.390Z,11.17
2023-04-12T15:31:27.234Z,11.14
2023-04-12T15:33:55.785Z,11.13
2023-04-12T15:36:26.268Z,11.10
2023-04-12T15:38:55.980Z,11.03
2023-04-12T15:41:25.795Z,10.99
2023-04-12T15:43:54.086Z,10.98
2023-04-12T15:46:26.015Z,10.98
2023-04-12T15:48:54.293Z,10.99
2023-04-12T15:51:24.060Z,11.01
2023-04-12T15:53:54.271Z,11.01
2023-04-12T15:56:25.589Z,10.97
2023-04-12T15:58:57.631Z,10.95
2023-04-12T16:01:28.584Z,10.94
2023-04-12T16:03:58.181Z,10.95
2023-04-12T16:06:27.031Z,10.96
2023-04-12T16:08:57.556Z,10.95
2023-04-12T16:11:27.288Z,10.95
2023-04-12T16:13:55.577Z,10.96
2023-04-12T16:16:26.479Z,10.97
2023-04-12T16:18:57.478Z,10.98
2023-04-12T16:21:26.970Z,10.96
2023-04-12T16:23:55.656Z,10.95
2023-04-12T16:26:23.933Z,10.96
2023-04-12T16:28:53.438Z,10.97
2023-04-12T16:31:21.827Z,10.96
2023-04-12T16:34:00.722Z,10.94
2023-04-12T16:36:31.593Z,10.92
2023-04-12T16:39:01.705Z,10.91
2023-04-12T16:41:30.086Z,10.89
2023-04-12T16:44:03.509Z,10.88
2023-04-12T16:46:36.831Z,10.88
2023-04-12T16:49:05.889Z,10.87
2023-04-12T16:51:36.757Z,10.85
2023-04-12T16:54:06.613Z,10.84
2023-04-12T16:56:35.657Z,10.83
2023-04-12T16:59:04.738Z,10.83
2023-04-12T17:01:33.018Z,10.84
2023-04-12T17:04:01.903Z,10.84
2023-04-12T17:06:34.051Z,10.85
2023-04-12T17:09:06.281Z,10.85
2023-04-12T17:11:35.026Z,10.85
2023-04-12T17:14:03.385Z,10.84
2023-04-12T17:16:35.921Z,10.86
2023-04-12T17:19:06.583Z,10.88
2023-04-12T17:21:42.525Z,10.90
2023-04-12T17:24:12.425Z,10.89
2023-04-12T17:26:41.349Z,10.89
2023-04-12T17:29:09.593Z,10.89
2023-04-12T17:31:39.409Z,10.90
2023-04-12T17:34:08.868Z,10.92
2023-04-12T17:36:38.323Z,10.92
2023-04-12T17:39:06.394Z,10.92
2023-04-12T17:41:35.898Z,10.90
2023-04-12T17:44:04.476Z,10.87
2023-04-12T17:46:38.210Z,10.86
2023-04-12T17:49:06.863Z,10.86
2023-04-12T17:51:34.908Z,10.87
2023-04-12T17:54:08.129Z,10.89
2023-04-12T17:56:36.342Z,10.89
2023-04-12T17:59:05.590Z,10.89
2023-04-12T18:01:37.226Z,10.91
2023-04-12T18:04:07.300Z,10.93
2023-04-12T18:06:35.636Z,10.94
2023-04-12T18:09:04.835Z,10.94
2023-04-12T18:11:38.928Z,10.92
2023-04-12T18:14:07.681Z,10.91
2023-04-12T18:16:40.702Z,10.89
2023-04-12T18:19:10.110Z,10.87
2023-04-12T18:21:38.387Z,10.89
2023-04-12T18:24:06.969Z,10.92
2023-04-12T18:26:35.668Z,10.94
2023-04-12T18:29:04.061Z,10.96
2023-04-12T18:31:32.682Z,10.97
2023-04-12T18:34:00.814Z,10.97
2023-04-12T18:36:30.250Z,10.99
2023-04-12T18:38:58.405Z,10.99
2023-04-12T18:41:27.914Z,10.97
2023-04-12T18:43:57.152Z,10.97
2023-04-12T18:46:27.099Z,10.95
2023-04-12T18:48:58.211Z,10.94
2023-04-12T18:51:26.760Z,10.92
2023-04-12T18:53:54.952Z,10.91
2023-04-12T18:56:24.623Z,10.91
2023-04-12T18:58:55.904Z,10.89
2023-04-12T19:01:25.087Z,10.88
2023-04-12T19:03:56.037Z,10.88
2023-04-12T19:06:24.642Z,10.89
2023-04-12T19:08:52.807Z,10.88
2023-04-12T19:11:23.489Z,10.86
2023-04-12T19:13:53.677Z,10.82
2023-04-12T19:16:22.735Z,10.80
2023-04-12T19:18:55.299Z,10.79
2023-04-12T19:21:24.374Z,10.78
2023-04-12T19:23:53.247Z,10.76
2023-04-12T19:26:23.069Z,10.74
2023-04-12T19:28:55.690Z,10.72
2023-04-12T19:31:23.990Z,10.69
2023-04-12T19:33:55.515Z,10.65
2023-04-12T19:36:24.898Z,10.59
2023-04-12T19:38:53.051Z,10.55
2023-04-12T19:41:21.732Z,10.52
2023-04-12T19:43:50.542Z,10.46
2023-04-12T19:46:18.760Z,10.43
2023-04-12T19:48:47.497Z,10.41
2023-04-12T19:51:15.892Z,10.38
2023-04-12T19:53:47.742Z,10.35
2023-04-12T19:56:16.444Z,10.32
2023-04-12T19:58:44.532Z,10.28
2023-04-12T20:01:13.861Z,10.24
2023-04-12T20:03:45.218Z,10.21
2023-04-12T20:06:13.359Z,10.18
2023-04-12T20:08:41.465Z,10.15
2023-04-12T20:11:09.549Z,10.12
2023-04-12T20:13:39.878Z,10.09
2023-04-12T20:16:10.000Z,10.06
2023-04-12T20:18:38.082Z,10.04
2023-04-12T20:21:09.894Z,10.03
2023-04-12T20:23:38.009Z,10.02
2023-04-12T20:26:05.975Z,10.02
2023-04-12T20:28:34.514Z,10.02
2023-04-12T20:31:02.846Z,10.02
2023-04-12T20:33:31.101Z,10.01
2023-04-12T20:35:59.592Z,10.01
2023-04-12T20:38:30.220Z,10.01
2023-04-12T20:41:01.480Z,10.00
2023-04-12T20:43:30.215Z,10.00
2023-04-12T20:45:58.874Z,10.01
2023-04-12T20:48:27.492Z,10.02
2023-04-12T20:50:56.296Z,10.04
2023-04-12T20:53:25.643Z,10.04
2023-04-12T20:55:54.857Z,10.04
2023-04-12T20:58:24.043Z,10.05
2023-04-12T21:00:52.552Z,10.06
2023-04-12T21:03:21.713Z,10.08
2023-04-12T21:05:50.984Z,10.09
2023-04-12T21:08:22.771Z,10.10
2023-04-12T21:10:50.907Z,10.11
2023-04-12T21:13:21.846Z,10.12
2023-04-12T21:15:50.485Z,10.13
2023-04-12T21:18:20.211Z,10.13
2023-04-12T21:20:48.463Z,10.14
2023-04-12T21:23:19.760Z,10.16
2023-04-12T21:25:48.545Z,10.17
2023-04-12T21:28:17.038Z,10.17
2023-04-12T21:30:46.328Z,10.18
2023-04-12T21:33:24.812Z,10.18
2023-04-12T21:35:54.468Z,10.18
2023-04-12T21:38:23.043Z,10.18
2023-04-12T21:40:51.635Z,10.18
2023-04-12T21:43:20.421Z,10.19
2023-04-12T21:45:48.515Z,10.20
2023-04-12T21:48:18.012Z,10.19
2023-04-12T21:50:46.243Z,10.19
2023-04-12T21:53:14.097Z,10.18
2023-04-12T21:55:42.755Z,10.17
2023-04-12T21:58:11.092Z,10.14
2023-04-12T22:00:41.792Z,10.13
2023-04-12T22:03:11.578Z,10.12
2023-04-12T22:06:03.040Z,10.11
2023-04-12T22:08:33.217Z,10.11
2023-04-12T22:11:01.660Z,10.10
2023-04-12T22:13:30.799Z,10.09
2023-04-12T22:16:00.850Z,10.10
2023-04-12T22:18:29.717Z,10.09
2023-04-12T22:21:04.248Z,10.11
2023-04-12T22:23:38.775Z,10.11
2023-04-12T22:26:07.816Z,10.11
2023-04-12T22:28:38.736Z,10.11
2023-04-12T22:31:14.374Z,10.10
2023-04-12T22:33:42.611Z,10.11
2023-04-12T22:36:11.371Z,10.10
2023-04-12T22:38:41.768Z,10.09
2023-04-12T22:41:09.774Z,10.08
2023-04-12T22:43:42.193Z,10.09
2023-04-12T22:46:16.736Z,10.09
2023-04-12T22:48:46.467Z,10.07
2023-04-12T22:51:19.014Z,10.07
2023-04-12T22:53:47.929Z,10.06
2023-04-12T22:56:15.820Z,10.06
2023-04-12T22:58:44.576Z,10.05
2023-04-12T23:01:12.548Z,10.04
2023-04-12T23:03:44.825Z,10.01
2023-04-12T23:06:19.741Z,9.99
2023-04-12T23:08:50.887Z,9.96
2023-04-12T23:11:19.292Z,9.94
2023-04-12T23:13:47.263Z,9.89
2023-04-12T23:16:18.467Z,9.87
2023-04-12T23:18:46.887Z,9.87
2023-04-12T23:21:15.075Z,9.87
2023-04-12T23:23:48.470Z,9.84
2023-04-12T23:26:16.834Z,9.78
2023-04-12T23:28:45.549Z,9.75
2023-04-12T23:31:16.391Z,9.76
2023-04-12T23:33:45.197Z,9.77
2023-04-12T23:36:13.137Z,9.76
2023-04-12T23:38:44.463Z,9.77
2023-04-12T23:41:12.685Z,9.77
2023-04-12T23:43:40.976Z,9.76
2023-04-12T23:46:10.398Z,9.78
2023-04-12T23:48:38.576Z,9.78
2023-04-12T23:51:07.250Z,9.80
2023-04-12T23:53:36.492Z,9.82
2023-04-12T23:56:05.253Z,9.85
2023-04-12T23:58:33.178Z,9.88
